Time;durP1;ratioP1;P1;durP2;ratioP2;P2;SDS_P1;SDS_P2;PMS_P1;PMS_P2;Temp;Humidity;BMP_temperature;BMP_pressure;BME280_temperature;BME280_humidity;BME280_pressure;Samples;Min_cycle;Max_cycle;Signal;HPM_P1;HPM_P2
2022/04/08 00:00:02;;;;;;;;;;;;;;;5.14;79.12793;99719.25;;;;-82
2022/04/08 00:05:05;;;;;;;;;;;;;;;5.06;78.98145;99717.98;;;;-84
2022/04/08 00:09:47;;;;;;;2.9;0.7;;;;;;;;;;;;;-82
2022/04/08 00:10:14;;;;;;;;;;;;;;;4.96;78.78809;99712.2;;;;-82
2022/04/08 00:15:22;;;;;;;;;;;;;;;4.91;78.59473;99723.45;;;;-84
2022/04/08 00:20:25;;;;;;;;;;;;;;;4.85;78.5957;99721.25;;;;-81
2022/04/08 00:29:51;;;;;;;;;;;;;;;4.73;78.70313;99734.28;;;;-83
2022/04/08 00:34:50;;;;;;;;;;;;;;;4.7;78.74219;99741.42;;;;-82
2022/04/08 00:39:54;;;;;;;;;;;;;;;4.69;78.75293;99740.27;;;;-82
2022/04/08 00:40:15;;;;;;;6.2;0.7;;;;;;;;;;;;;-82
2022/04/08 00:49:42;;;;;;;;;;;;;;;4.68;78.80371;99757.06;;;;-81
2022/04/08 00:54:48;;;;;;;;;;;;;;;4.67;78.73535;99768.73;;;;-83
2022/04/08 00:59:40;;;;;;;;;;;;;;;4.62;78.63965;99780.42;;;;-82
2022/04/08 01:04:44;;;;;;;;;;;;;;;4.56;78.54199;99776.42;;;;-83
2022/04/08 01:09:47;;;;;;;;;;;;;;;4.5;78.46484;99786.03;;;;-81
2022/04/08 01:10:02;;;;;;;4;0.7;;;;;;;;;;;;;-81
2022/04/08 01:14:44;;;;;;;;;;;;;;;4.43;78.44141;99789.34;;;;-83
2022/04/08 01:19:48;;;;;;;;;;;;;;;4.39;78.44531;99793.19;;;;-85
2022/04/08 01:24:42;;;;;;;;;;;;;;;4.36;78.3418;99796.98;;;;-82
2022/04/08 01:29:53;;;;;;;;;;;;;;;4.33;78.31348;99802.83;;;;-83
2022/04/08 01:34:45;;;;;;;;;;;;;;;4.31;78.33203;99805.42;;;;-84
2022/04/08 01:39:48;;;;;;;;;;;;;;;4.28;78.35938;99811.14;;;;-82
2022/04/08 01:40:05;;;;;;;3.3;0.7;;;;;;;;;;;;;-82
2022/04/08 01:44:50;;;;;;;;;;;;;;;4.24;78.40625;99814.2;;;;-82
2022/04/08 01:49:41;;;;;;;;;;;;;;;4.22;78.21777;99825.94;;;;-83
2022/04/08 01:54:50;;;;;;;;;;;;;;;4.21;78.05078;99840.59;;;;-82
2022/04/08 01:59:40;;;;;;;;;;;;;;;4.18;77.81836;99841.45;;;;-83
2022/04/08 02:04:45;;;;;;;;;;;;;;;4.14;77.75684;99848.98;;;;-82
2022/04/08 02:09:46;;;;;;;;;;;;;;;4.09;77.66016;99864.3;;;;-81
2022/04/08 02:09:59;;;;;;;3.5;0.6;;;;;;;;;;;;;-81
2022/04/08 02:14:46;;;;;;;;;;;;;;;4.05;77.64258;99878.37;;;;-83
2022/04/08 02:19:32;;;;;;;;;;;;;;;4.02;77.79004;99875.09;;;;-82
2022/04/08 02:24:37;;;;;;;;;;;;;;;4;78.05957;99884.94;;;;-83
2022/04/08 02:29:33;;;;;;;;;;;;;;;4.01;78.125;99883.55;;;;-84
2022/04/08 02:34:38;;;;;;;;;;;;;;;4.02;78.20313;99876.98;;;;-83
2022/04/08 02:39:39;;;;;;;;;;;;;;;3.99;78.27441;99873.49;;;;-83
2022/04/08 02:39:49;;;;;;;3.1;0.7;;;;;;;;;;;;;-83
2022/04/08 02:44:31;;;;;;;;;;;;;;;3.98;78.30566;99878.17;;;;-83
2022/04/08 02:49:32;;;;;;;;;;;;;;;3.95;78.30078;99878.67;;;;-83
2022/04/08 02:54:31;;;;;;;;;;;;;;;3.95;78.47363;99866.61;;;;-82
2022/04/08 02:59:29;;;;;;;;;;;;;;;3.93;78.49316;99877.34;;;;-82
2022/04/08 03:04:29;;;;;;;;;;;;;;;3.92;78.40234;99877.67;;;;-84
2022/04/08 03:09:32;;;;;;;;;;;;;;;3.88;78.41797;99873.19;;;;-82
2022/04/08 03:09:46;;;;;;;4.5;0.9;;;;;;;;;;;;;-82
2022/04/08 03:14:42;;;;;;;;;;;;;;;3.85;78.3457;99868.96;;;;-83
2022/04/08 03:19:31;;;;;;;;;;;;;;;3.79;78.34668;99873.06;;;;-82
2022/04/08 03:24:39;;;;;;;;;;;;;;;3.71;78.2793;99875.94;;;;-82
2022/04/08 03:29:31;;;;;;;;;;;;;;;3.67;78.3584;99878.25;;;;-82
2022/04/08 03:37:04;;;;;;;;;;;;;;;3.57;78.37402;99890.78;;;;-82
2022/04/08 03:39:41;;;;;;;3.4;1;;;;;;;;;;;;;-81
2022/04/08 03:42:02;;;;;;;;;;;;;;;3.51;78.38281;99889.63;;;;-80
2022/04/08 03:47:00;;;;;;;;;;;;;;;3.46;78.66699;99886.52;;;;-83
2022/04/08 03:52:00;;;;;;;;;;;;;;;3.41;78.7998;99886.66;;;;-83
2022/04/08 03:57:05;;;;;;;;;;;;;;;3.38;78.6748;99885.91;;;;-82
2022/04/08 04:02:05;;;;;;;;;;;;;;;3.37;78.96582;99884.55;;;;-81
2022/04/08 04:07:01;;;;;;;;;;;;;;;3.37;78.97852;99877.81;;;;-81
2022/04/08 04:09:46;;;;;;;3.8;1.1;;;;;;;;;;;;;-81
2022/04/08 04:12:08;;;;;;;;;;;;;;;3.34;78.77539;99872.11;;;;-81
2022/04/08 04:17:03;;;;;;;;;;;;;;;3.35;78.72461;99872.59;;;;-81
2022/04/08 04:22:05;;;;;;;;;;;;;;;3.32;78.88281;99867.55;;;;-82
2022/04/08 04:27:00;;;;;;;;;;;;;;;3.3;78.75977;99869.09;;;;-82
2022/04/08 04:32:01;;;;;;;;;;;;;;;3.28;79.00488;99867.81;;;;-81
2022/04/08 04:37:00;;;;;;;;;;;;;;;3.26;79.27246;99873.95;;;;-82
2022/04/08 04:39:40;;;;;;;5.2;1.1;;;;;;;;;;;;;-82
2022/04/08 04:42:01;;;;;;;;;;;;;;;3.26;79.05469;99877.22;;;;-82
2022/04/08 04:47:01;;;;;;;;;;;;;;;3.27;79.04492;99876.8;;;;-80
2022/04/08 04:52:00;;;;;;;;;;;;;;;3.24;79.10742;99877.06;;;;-82
2022/04/08 04:57:05;;;;;;;;;;;;;;;3.25;79.46777;99879.03;;;;-82
2022/04/08 05:02:00;;;;;;;;;;;;;;;3.28;79.70117;99872.64;;;;-81
2022/04/08 05:07:03;;;;;;;;;;;;;;;3.32;79.91699;99882.66;;;;-79
2022/04/08 05:09:45;;;;;;;3.6;0.8;;;;;;;;;;;;;-82
2022/04/08 05:12:09;;;;;;;;;;;;;;;3.33;80.14648;99883.72;;;;-80
2022/04/08 05:17:04;;;;;;;;;;;;;;;3.36;80.07617;99886.64;;;;-83
2022/04/08 05:22:01;;;;;;;;;;;;;;;3.38;79.86133;99886.44;;;;-81
2022/04/08 05:27:02;;;;;;;;;;;;;;;3.39;79.39551;99886.45;;;;-82
2022/04/08 05:32:03;;;;;;;;;;;;;;;3.37;79.27246;99886.66;;;;-82
2022/04/08 05:37:07;;;;;;;;;;;;;;;3.38;79.11035;99882.91;;;;-81
2022/04/08 05:39:39;;;;;;;5.1;1.1;;;;;;;;;;;;;-81
2022/04/08 05:42:12;;;;;;;;;;;;;;;3.4;79.08301;99885.5;;;;-83
2022/04/08 05:47:00;;;;;;;;;;;;;;;3.41;79.05176;99877.94;;;;-82
2022/04/08 05:52:08;;;;;;;;;;;;;;;3.43;79.07715;99885.31;;;;-83
2022/04/08 05:57:02;;;;;;;;;;;;;;;3.5;79.31738;99880.22;;;;-81
2022/04/08 06:02:02;;;;;;;;;;;;;;;3.6;79.28125;99873.97;;;;-82
2022/04/08 06:07:05;;;;;;;;;;;;;;;3.83;79.19238;99880.38;;;;-83
2022/04/08 06:09:37;;;;;;;3.8;1.1;;;;;;;;;;;;;-82
2022/04/08 06:12:00;;;;;;;;;;;;;;;4.29;78.67676;99885.39;;;;-81
2022/04/08 06:17:00;;;;;;;;;;;;;;;4.53;77.92383;99882.81;;;;-83
2022/04/08 06:22:02;;;;;;;;;;;;;;;4.73;77.19531;99881.23;;;;-82
2022/04/08 06:27:04;;;;;;;;;;;;;;;4.97;76.64941;99881.47;;;;-83
2022/04/08 06:32:02;;;;;;;;;;;;;;;5.33;75.96777;99880.62;;;;-83
2022/04/08 06:37:00;;;;;;;;;;;;;;;5.6;75.52344;99878.7;;;;-80
2022/04/08 06:39:37;;;;;;;7.2;1.4;;;;;;;;;;;;;-81
2022/04/08 06:42:00;;;;;;;;;;;;;;;5.77;75.10449;99880.98;;;;-82
2022/04/08 06:47:01;;;;;;;;;;;;;;;5.9;75.0166;99882.85;;;;-82
2022/04/08 06:52:06;;;;;;;;;;;;;;;6;75.13086;99885.45;;;;-81
2022/04/08 06:57:00;;;;;;;;;;;;;;;6.1;75.28223;99879.61;;;;-81
2022/04/08 07:02:00;;;;;;;;;;;;;;;6.33;74.83984;99878.03;;;;-82
2022/04/08 07:07:11;;;;;;;;;;;;;;;6.52;74.95898;99879.33;;;;-83
2022/04/08 07:09:41;;;;;;;6.3;1.6;;;;;;;;;;;;;-83
2022/04/08 07:12:03;;;;;;;;;;;;;;;6.59;74.81836;99877.02;;;;-81
2022/04/08 07:17:02;;;;;;;;;;;;;;;6.7;74.69434;99880.75;;;;-81
2022/04/08 07:22:01;;;;;;;;;;;;;;;6.77;74.16699;99881;;;;-82
2022/04/08 07:27:01;;;;;;;;;;;;;;;6.83;74.31152;99886.81;;;;-82
2022/04/08 07:32:00;;;;;;;;;;;;;;;6.85;73.93945;99896.3;;;;-81
2022/04/08 07:37:03;;;;;;;;;;;;;;;6.82;74.01172;99888.52;;;;-82
2022/04/08 07:39:42;;;;;;;7.4;1.5;;;;;;;;;;;;;-80
2022/04/08 07:42:00;;;;;;;;;;;;;;;6.99;73.99609;99887.56;;;;-82
2022/04/08 07:47:02;;;;;;;;;;;;;;;7.14;74.07715;99884.65;;;;-82
2022/04/08 07:52:03;;;;;;;;;;;;;;;7.31;73.64258;99882.48;;;;-82
2022/04/08 07:57:04;;;;;;;;;;;;;;;7.57;73.91992;99873.23;;;;-81
2022/04/08 08:02:03;;;;;;;;;;;;;;;8.03;73.41406;99873.88;;;;-81
2022/04/08 08:07:01;;;;;;;;;;;;;;;8.56;72.34375;99864.85;;;;-81
2022/04/08 08:09:37;;;;;;;7.1;1.5;;;;;;;;;;;;;-81
2022/04/08 08:12:01;;;;;;;;;;;;;;;9.01;70.5957;99864.72;;;;-83
2022/04/08 08:17:00;;;;;;;;;;;;;;;8.94;69.51172;99868.98;;;;-80
2022/04/08 08:22:14;;;;;;;;;;;;;;;8.8;70.50488;99879.39;;;;-82
2022/04/08 08:27:10;;;;;;;;;;;;;;;9.06;70.87988;99875.55;;;;-83
2022/04/08 08:32:06;;;;;;;;;;;;;;;9.51;70.25488;99864.93;;;;-82
2022/04/08 08:37:07;;;;;;;;;;;;;;;9.84;68.14844;99863.56;;;;-82
2022/04/08 08:39:41;;;;;;;10.4;2;;;;;;;;;;;;;-81
2022/04/08 08:42:03;;;;;;;;;;;;;;;9.65;67.98535;99854.14;;;;-80
2022/04/08 08:47:02;;;;;;;;;;;;;;;9.64;69.6123;99847.56;;;;-81
2022/04/08 08:52:06;;;;;;;;;;;;;;;10.04;68.60059;99849.55;;;;-83
2022/04/08 08:57:09;;;;;;;;;;;;;;;10.49;67.74902;99851.06;;;;-81
2022/04/08 09:02:10;;;;;;;;;;;;;;;10.75;66.65625;99842.87;;;;-83
2022/04/08 09:09:48;;;;;;;7.9;1.7;;;;;;;;;;;;;-83
2022/04/08 09:11:09;;;;;;;;;;;;;;;10.87;66.77441;99846.09;;;;-83
2022/04/08 09:16:08;;;;;;;;;;;;;;;10.99;65.50391;99837.11;;;;-82
2022/04/08 09:21:07;;;;;;;;;;;;;;;11.12;65.85547;99839.55;;;;-81
2022/04/08 09:26:14;;;;;;;;;;;;;;;11.26;65.48633;99840.22;;;;-82
2022/04/08 09:31:12;;;;;;;;;;;;;;;11.34;65.49902;99839.15;;;;-81
2022/04/08 09:36:10;;;;;;;;;;;;;;;11.38;65.4834;99840.45;;;;-83
2022/04/08 09:39:39;;;;;;;6.4;1.7;;;;;;;;;;;;;-82
2022/04/08 09:41:10;;;;;;;;;;;;;;;11.4;64.71777;99839.61;;;;-81
2022/04/08 09:46:21;;;;;;;;;;;;;;;11.25;64.66309;99845.91;;;;-81
2022/04/08 09:51:09;;;;;;;;;;;;;;;11.13;64.02051;99844.95;;;;-82
2022/04/08 09:56:20;;;;;;;;;;;;;;;11.05;64.44238;99824.41;;;;-83
2022/04/08 10:01:07;;;;;;;;;;;;;;;10.98;65.82422;99824.05;;;;-83
2022/04/08 10:06:13;;;;;;;;;;;;;;;11.01;64.98242;99818.63;;;;-82
2022/04/08 10:09:44;;;;;;;5.1;1.6;;;;;;;;;;;;;-82
2022/04/08 10:11:10;;;;;;;;;;;;;;;11.11;65.7666;99831.92;;;;-82
2022/04/08 10:16:15;;;;;;;;;;;;;;;11.23;65.1709;99832.2;;;;-83
2022/04/08 10:21:07;;;;;;;;;;;;;;;11.31;65.00488;99838.47;;;;-82
2022/04/08 10:26:10;;;;;;;;;;;;;;;11.45;65.52832;99844.3;;;;-83
2022/04/08 10:31:27;;;;;;;;;;;;;;;11.68;64.78223;99853.32;;;;-82
2022/04/08 10:36:13;;;;;;;;;;;;;;;11.85;64.89648;99862.02;;;;-83
2022/04/08 10:39:42;;;;;;;6.1;1.5;;;;;;;;;;;;;-83
2022/04/08 10:41:10;;;;;;;;;;;;;;;11.87;63.69336;99870.86;;;;-83
2022/04/08 10:46:07;;;;;;;;;;;;;;;11.66;62.73828;99865.19;;;;-81
2022/04/08 10:51:18;;;;;;;;;;;;;;;11.46;64.3584;99853.16;;;;-82
2022/04/08 10:56:14;;;;;;;;;;;;;;;11.4;64.16113;99849.36;;;;-83
2022/04/08 11:01:17;;;;;;;;;;;;;;;11.56;65.86719;99848.5;;;;-83
2022/04/08 11:06:11;;;;;;;;;;;;;;;11.74;64.82422;99849.86;;;;-83
2022/04/08 11:09:40;;;;;;;4.4;1.3;;;;;;;;;;;;;-83
2022/04/08 11:11:25;;;;;;;;;;;;;;;11.91;65.03906;99846.69;;;;-88
2022/04/08 11:21:21;;;;;;;;;;;;;;;12.22;64.61719;99826.08;;;;-85
2022/04/08 11:36:30;;;;;;;;;;;;;;;12.59;67.75098;99828.39;;;;-83
2022/04/08 11:39:52;;;;;;;4.1;1.2;;;;;;;;;;;;;-82
2022/04/08 11:41:28;;;;;;;;;;;;;;;12.78;68.75098;99831.16;;;;-84
2022/04/08 11:50:41;;;;;;;;;;;;;;;12.98;68.81641;99813.6;;;;-83
2022/04/08 11:58:32;;;;;;;;;;;;;;;13.17;68.50098;99813.04;;;;-85
2022/04/08 12:08:33;;;;;;;;;;;;;;;13.17;68.04297;99804.9;;;;-83
2022/04/08 12:09:58;;;;;;;3.6;1.1;;;;;;;;;;;;;-84
2022/04/08 12:13:41;;;;;;;;;;;;;;;13.15;68.95508;99792.13;;;;-84
2022/04/08 12:18:34;;;;;;;;;;;;;;;13.33;68.77246;99793.47;;;;-84
2022/04/08 12:23:33;;;;;;;;;;;;;;;13.53;68.69238;99796.48;;;;-82
2022/04/08 12:28:28;;;;;;;;;;;;;;;13.66;68.71191;99796.07;;;;-82
2022/04/08 12:33:25;;;;;;;;;;;;;;;13.81;68.06348;99802.09;;;;-82
2022/04/08 12:38:24;;;;;;;;;;;;;;;13.81;67.82813;99807.44;;;;-82
2022/04/08 12:39:45;;;;;;;3.3;1.1;;;;;;;;;;;;;-82
2022/04/08 12:43:27;;;;;;;;;;;;;;;13.78;67.83398;99806.5;;;;-81
2022/04/08 12:48:23;;;;;;;;;;;;;;;13.71;68.08105;99805.72;;;;-82
2022/04/08 12:53:29;;;;;;;;;;;;;;;13.69;67.3623;99806.37;;;;-82
2022/04/08 12:58:29;;;;;;;;;;;;;;;13.63;66.2002;99812.55;;;;-82
2022/04/08 13:03:25;;;;;;;;;;;;;;;13.53;65.61523;99814.3;;;;-81
2022/04/08 13:08:34;;;;;;;;;;;;;;;13.37;65.94922;99805.91;;;;-82
2022/04/08 13:09:51;;;;;;;4.1;1.2;;;;;;;;;;;;;-82
2022/04/08 13:13:33;;;;;;;;;;;;;;;13.28;65.83496;99813.95;;;;-82
2022/04/08 13:18:23;;;;;;;;;;;;;;;13.28;65.88965;99814.77;;;;-83
2022/04/08 13:23:24;;;;;;;;;;;;;;;13.31;66.10742;99817.27;;;;-81
2022/04/08 13:28:28;;;;;;;;;;;;;;;13.39;66.01953;99821.09;;;;-82
2022/04/08 13:33:24;;;;;;;;;;;;;;;13.42;65.52051;99822.27;;;;-81
2022/04/08 13:38:29;;;;;;;;;;;;;;;13.34;65.05078;99824.78;;;;-82
2022/04/08 13:39:52;;;;;;;3.8;0.9;;;;;;;;;;;;;-81
2022/04/08 13:43:26;;;;;;;;;;;;;;;13.2;64.42578;99818.6;;;;-81
2022/04/08 13:48:27;;;;;;;;;;;;;;;13.13;64.52637;99813.09;;;;-81
2022/04/08 13:53:27;;;;;;;;;;;;;;;13.2;64.80566;99820.33;;;;-83
2022/04/08 13:58:27;;;;;;;;;;;;;;;13.36;64.83008;99813.63;;;;-80
2022/04/08 14:08:35;;;;;;;;;;;;;;;13.52;64.84082;99815.98;;;;-81
2022/04/08 14:09:51;;;;;;;2.4;1;;;;;;;;;;;;;-81
2022/04/08 14:13:31;;;;;;;;;;;;;;;13.59;65.44531;99813.84;;;;-81
2022/04/08 14:18:33;;;;;;;;;;;;;;;13.75;66.10645;99807.88;;;;-82
2022/04/08 14:23:26;;;;;;;;;;;;;;;13.94;65.64258;99810.91;;;;-82
2022/04/08 14:28:28;;;;;;;;;;;;;;;14.05;65.52441;99815.48;;;;-81
2022/04/08 14:33:26;;;;;;;;;;;;;;;14.09;64.76953;99820.42;;;;-82
2022/04/08 14:38:28;;;;;;;;;;;;;;;14.04;64.73828;99827.77;;;;-82
2022/04/08 14:39:49;;;;;;;3.8;0.8;;;;;;;;;;;;;-83
2022/04/08 14:43:28;;;;;;;;;;;;;;;14;64.68652;99832.78;;;;-82
2022/04/08 14:48:27;;;;;;;;;;;;;;;13.9;63.72168;99836.44;;;;-81
2022/04/08 14:53:24;;;;;;;;;;;;;;;13.67;63.65527;99835.69;;;;-81
2022/04/08 14:58:29;;;;;;;;;;;;;;;13.46;63.13184;99833.81;;;;-79
2022/04/08 15:03:29;;;;;;;;;;;;;;;13.33;63.1582;99835.24;;;;-82
2022/04/08 15:08:28;;;;;;;;;;;;;;;13.2;62.79199;99848.53;;;;-83
2022/04/08 15:09:51;;;;;;;3.3;0.8;;;;;;;;;;;;;-82
2022/04/08 15:13:23;;;;;;;;;;;;;;;13.08;63.38867;99853.72;;;;-81
2022/04/08 15:18:26;;;;;;;;;;;;;;;13.01;62.97656;99856.7;;;;-81
2022/04/08 15:28:24;;;;;;;;;;;;;;;12.94;62.4873;99857.67;;;;-84
2022/04/08 15:33:30;;;;;;;;;;;;;;;12.86;62.87793;99861.48;;;;-81
2022/04/08 15:38:26;;;;;;;;;;;;;;;12.74;62.04395;99863.98;;;;-82
2022/04/08 15:39:57;;;;;;;3.4;1;;;;;;;;;;;;;-81
2022/04/08 15:43:35;;;;;;;;;;;;;;;12.6;61.47656;99868.3;;;;-81
2022/04/08 15:48:28;;;;;;;;;;;;;;;12.53;61.94824;99881.22;;;;-81
2022/04/08 15:53:26;;;;;;;;;;;;;;;12.4;61.82813;99888.2;;;;-81
2022/04/08 15:58:25;;;;;;;;;;;;;;;12.23;61.81543;99896.55;;;;-82
2022/04/08 16:03:29;;;;;;;;;;;;;;;12.03;62.2666;99898.66;;;;-82
2022/04/08 16:08:27;;;;;;;;;;;;;;;11.86;62.48926;99903.91;;;;-81
2022/04/08 16:09:54;;;;;;;5.2;1.1;;;;;;;;;;;;;-81
2022/04/08 16:13:27;;;;;;;;;;;;;;;11.68;62.28418;99907.13;;;;-81
2022/04/08 16:18:25;;;;;;;;;;;;;;;11.56;62.8584;99920.58;;;;-81
2022/04/08 16:23:39;;;;;;;;;;;;;;;11.39;63.12305;99924.85;;;;-83
2022/04/08 16:28:30;;;;;;;;;;;;;;;11.26;63.2832;99931.97;;;;-82
2022/04/08 16:33:24;;;;;;;;;;;;;;;11.13;63.35254;99941.48;;;;-81
2022/04/08 16:38:29;;;;;;;;;;;;;;;10.93;63.24609;99945.66;;;;-82
2022/04/08 16:39:57;;;;;;;3.8;0.8;;;;;;;;;;;;;-80
2022/04/08 16:43:28;;;;;;;;;;;;;;;10.82;63.89746;99953.52;;;;-81
2022/04/08 16:48:29;;;;;;;;;;;;;;;10.66;62.90723;99960.66;;;;-80
2022/04/08 16:53:29;;;;;;;;;;;;;;;10.55;63.98145;99971.48;;;;-81
2022/04/08 16:58:36;;;;;;;;;;;;;;;10.42;64.28516;99966.13;;;;-82
2022/04/08 17:03:24;;;;;;;;;;;;;;;10.33;64.14746;99971.61;;;;-83
2022/04/08 17:08:33;;;;;;;;;;;;;;;10.2;63.63086;99978.88;;;;-82
2022/04/08 17:10:12;;;;;;;3;0.8;;;;;;;;;;;;;-79
2022/04/08 17:13:23;;;;;;;;;;;;;;;10.07;63.59961;99981.48;;;;-81
2022/04/08 17:18:25;;;;;;;;;;;;;;;9.94;64.00098;99988.17;;;;-82
2022/04/08 17:23:24;;;;;;;;;;;;;;;9.77;64.31055;99979.22;;;;-82
2022/04/08 17:28:41;;;;;;;;;;;;;;;;;;;;;
2022/04/08 17:33:24;;;;;;;;;;;;;;;9.49;64.43652;99993.91;;;;-82
2022/04/08 17:38:23;;;;;;;;;;;;;;;9.37;64.61719;99994.83;;;;-82
2022/04/08 17:40:06;;;;;;;4.4;1;;;;;;;;;;;;;-81
2022/04/08 17:43:24;;;;;;;;;;;;;;;9.22;64.7168;99990.11;;;;-80
2022/04/08 17:48:26;;;;;;;;;;;;;;;9.09;64.90723;99986.67;;;;-82
2022/04/08 17:53:26;;;;;;;;;;;;;;;8.92;64.99219;99989.69;;;;-82
2022/04/08 17:58:30;;;;;;;;;;;;;;;8.79;64.6748;99988.59;;;;-81
2022/04/08 18:03:30;;;;;;;;;;;;;;;8.7;64.99316;99997.86;;;;-81
2022/04/08 18:08:27;;;;;;;;;;;;;;;8.59;64.52344;99997.86;;;;-82
2022/04/08 18:10:00;;;;;;;4.2;0.9;;;;;;;;;;;;;-81
2022/04/08 18:13:35;;;;;;;;;;;;;;;8.44;64.78906;99994.95;;;;-80
2022/04/08 18:18:30;;;;;;;;;;;;;;;8.27;65.11719;99997.8;;;;-83
2022/04/08 18:23:25;;;;;;;;;;;;;;;8.09;65.2666;100007.7;;;;-81
2022/04/08 18:28:23;;;;;;;;;;;;;;;7.93;65.30957;100009.2;;;;-81
2022/04/08 18:33:34;;;;;;;;;;;;;;;7.76;65.41699;100017.8;;;;-80
2022/04/08 18:38:32;;;;;;;;;;;;;;;7.61;65.75879;100026.8;;;;-83
2022/04/08 18:43:44;;;;;;;;;;;;;;;7.44;66.20605;100035.1;;;;-83
2022/04/08 18:48:21;;;;;;;;;;;;;;;7.3;66.4043;100035.9;;;;-82
2022/04/08 18:53:25;;;;;;;;;;;;;;;7.14;66.6123;100040.3;;;;-83
2022/04/08 18:58:21;;;;;;;;;;;;;;;7.03;66.8252;100054.6;;;;-83
2022/04/08 19:03:21;;;;;;;;;;;;;;;6.89;67.04785;100065.6;;;;-84
2022/04/08 19:08:24;;;;;;;;;;;;;;;6.79;67.25293;100070.5;;;;-83
2022/04/08 19:09:59;;;;;;;6.5;1.1;;;;;;;;;;;;;-82
2022/04/08 19:13:20;;;;;;;;;;;;;;;6.69;67.41406;100081.8;;;;-82
2022/04/08 19:18:22;;;;;;;;;;;;;;;6.6;67.70801;100091.9;;;;-82
2022/04/08 19:23:22;;;;;;;;;;;;;;;6.5;67.86621;100094;;;;-84
2022/04/08 19:28:39;;;;;;;;;;;;;;;6.42;67.9541;100100.7;;;;-80
2022/04/08 19:33:20;;;;;;;;;;;;;;;6.33;68.1377;100102.6;;;;-82
2022/04/08 19:38:20;;;;;;;;;;;;;;;6.26;68.37891;100105.6;;;;-82
2022/04/08 19:39:59;;;;;;;5.3;1;;;;;;;;;;;;;-82
2022/04/08 19:43:21;;;;;;;;;;;;;;;6.2;68.56641;100109.5;;;;-82
2022/04/08 19:48:22;;;;;;;;;;;;;;;6.14;68.53613;100120.5;;;;-82
2022/04/08 19:53:20;;;;;;;;;;;;;;;6.06;68.57813;100122.8;;;;-82
2022/04/08 19:58:23;;;;;;;;;;;;;;;5.99;68.7207;100121.8;;;;-82
2022/04/08 20:03:24;;;;;;;;;;;;;;;5.92;68.95215;100125.3;;;;-81
2022/04/08 20:08:22;;;;;;;;;;;;;;;5.84;68.81836;100125.8;;;;-83
2022/04/08 20:10:02;;;;;;;7;1.2;;;;;;;;;;;;;-81
2022/04/08 20:13:23;;;;;;;;;;;;;;;5.75;68.94727;100137.8;;;;-81
2022/04/08 20:18:23;;;;;;;;;;;;;;;5.69;69.02539;100147.9;;;;-82
2022/04/08 20:23:37;;;;;;;;;;;;;;;5.62;69.15625;100148.8;;;;-83
2022/04/08 20:28:20;;;;;;;;;;;;;;;5.55;69.17773;100154.4;;;;-81
2022/04/08 20:33:22;;;;;;;;;;;;;;;5.47;69.24316;100161.9;;;;-81
2022/04/08 20:38:25;;;;;;;;;;;;;;;5.41;69.4502;100161.9;;;;-80
2022/04/08 20:40:02;;;;;;;7.2;1.2;;;;;;;;;;;;;-82
2022/04/08 20:43:28;;;;;;;;;;;;;;;5.35;69.36523;100172.8;;;;-81
2022/04/08 20:48:22;;;;;;;;;;;;;;;5.3;69.41211;100174.4;;;;-82
2022/04/08 20:53:24;;;;;;;;;;;;;;;5.24;69.5459;100176.1;;;;-81
2022/04/08 20:58:33;;;;;;;;;;;;;;;5.21;69.50879;100173.1;;;;-83
2022/04/08 21:03:26;;;;;;;;;;;;;;;5.19;69.625;100185.3;;;;-82
2022/04/08 21:08:26;;;;;;;;;;;;;;;5.15;69.65039;100188.6;;;;-83
2022/04/08 21:09:59;;;;;;;4.8;0.9;;;;;;;;;;;;;-82
2022/04/08 21:13:21;;;;;;;;;;;;;;;5.1;69.76367;100193.5;;;;-82
2022/04/08 21:18:24;;;;;;;;;;;;;;;5.06;69.8877;100199.9;;;;-81
2022/04/08 21:23:21;;;;;;;;;;;;;;;5.02;69.94824;100199.2;;;;-81
2022/04/08 21:28:20;;;;;;;;;;;;;;;4.99;69.94336;100204.1;;;;-82
2022/04/08 21:33:21;;;;;;;;;;;;;;;4.95;70.05664;100205.8;;;;-82
2022/04/08 21:38:20;;;;;;;;;;;;;;;4.89;70.04785;100221.4;;;;-81
2022/04/08 21:40:04;;;;;;;4.1;1;;;;;;;;;;;;;-82
2022/04/08 21:43:23;;;;;;;;;;;;;;;4.86;70.06348;100226.7;;;;-82
2022/04/08 21:48:23;;;;;;;;;;;;;;;4.84;70.20313;100239.6;;;;-81
2022/04/08 21:53:20;;;;;;;;;;;;;;;4.83;70.125;100242.1;;;;-82
2022/04/08 21:58:25;;;;;;;;;;;;;;;4.84;70.26855;100255;;;;-81
2022/04/08 22:03:25;;;;;;;;;;;;;;;4.8;70.24121;100262.2;;;;-81
2022/04/08 22:08:26;;;;;;;;;;;;;;;4.77;70.21484;100271.9;;;;-82
2022/04/08 22:10:00;;;;;;;4.8;1.2;;;;;;;;;;;;;-80
2022/04/08 22:13:23;;;;;;;;;;;;;;;4.73;70.22949;100277.9;;;;-82
2022/04/08 22:18:22;;;;;;;;;;;;;;;4.68;70.41699;100293.1;;;;-82
2022/04/08 22:23:22;;;;;;;;;;;;;;;4.65;70.44727;100297.5;;;;-82
2022/04/08 22:28:21;;;;;;;;;;;;;;;4.62;70.48535;100304.3;;;;-82
2022/04/08 22:33:22;;;;;;;;;;;;;;;4.6;70.61328;100319.1;;;;-83
2022/04/08 22:38:24;;;;;;;;;;;;;;;4.6;70.82129;100324.9;;;;-83
2022/04/08 22:40:03;;;;;;;5.4;1;;;;;;;;;;;;;-82
2022/04/08 22:43:21;;;;;;;;;;;;;;;4.6;71.01855;100334.5;;;;-81
2022/04/08 22:48:22;;;;;;;;;;;;;;;4.59;71.31348;100349.5;;;;-82
2022/04/08 22:53:24;;;;;;;;;;;;;;;4.57;71.28711;100346.6;;;;-82
2022/04/08 23:08:24;;;;;;;;;;;;;;;4.48;71.34863;100368;;;;-83
2022/04/08 23:10:02;;;;;;;7.4;1;;;;;;;;;;;;;-81
2022/04/08 23:11:29;;;;;;;;;;;;;;;4.43;71.40527;100370;;;;-81
2022/04/08 23:16:26;;;;;;;;;;;;;;;4.44;71.42969;100377.9;;;;-82
2022/04/08 23:21:22;;;;;;;;;;;;;;;4.42;71.39258;100380.1;;;;-82
2022/04/08 23:26:24;;;;;;;;;;;;;;;4.39;71.38672;100389.1;;;;-80
2022/04/08 23:31:22;;;;;;;;;;;;;;;4.38;71.34277;100400.5;;;;-80
2022/04/08 23:36:23;;;;;;;;;;;;;;;4.35;71.33887;100403.3;;;;-83
2022/04/08 23:40:02;;;;;;;4.8;0.9;;;;;;;;;;;;;-82
2022/04/08 23:41:24;;;;;;;;;;;;;;;4.33;71.49902;100424.2;;;;-80
2022/04/08 23:46:22;;;;;;;;;;;;;;;4.34;71.59766;100436.6;;;;-82
2022/04/08 23:51:21;;;;;;;;;;;;;;;4.35;71.5459;100439.8;;;;-81
2022/04/08 23:56:22;;;;;;;;;;;;;;;4.33;71.50879;100445.1;;;;-82
